sensor_id;sensor_type;location;lat;lon;timestamp;P1;durP1;ratioP1;P2;durP2;ratioP2
18338;SDS011;9295;44.484;11.240;2022-08-19T00:01:57;13.83;;;11.30;;
18338;SDS011;9295;44.484;11.240;2022-08-19T00:04:27;21.67;;;14.00;;
18338;SDS011;9295;44.484;11.240;2022-08-19T00:06:57;18.80;;;14.67;;
18338;SDS011;9295;44.484;11.240;2022-08-19T00:09:28;20.07;;;15.13;;
18338;SDS011;9295;44.484;11.240;2022-08-19T00:11:57;20.60;;;15.93;;
18338;SDS011;9295;44.484;11.240;2022-08-19T00:14:26;19.53;;;15.80;;
18338;SDS011;9295;44.484;11.240;2022-08-19T00:16:59;21.50;;;14.87;;
18338;SDS011;9295;44.484;11.240;2022-08-19T00:19:29;17.20;;;12.53;;
18338;SDS011;9295;44.484;11.240;2022-08-19T00:21:58;15.10;;;11.13;;
18338;SDS011;9295;44.484;11.240;2022-08-19T00:24:31;16.53;;;12.20;;
18338;SDS011;9295;44.484;11.240;2022-08-19T00:27:01;14.00;;;12.17;;
18338;SDS011;9295;44.484;11.240;2022-08-19T00:29:52;15.67;;;11.70;;
18338;SDS011;9295;44.484;11.240;2022-08-19T00:32:20;14.30;;;11.80;;
18338;SDS011;9295;44.484;11.240;2022-08-19T00:34:52;12.73;;;11.30;;
18338;SDS011;9295;44.484;11.240;2022-08-19T00:37:22;15.43;;;12.50;;
18338;SDS011;9295;44.484;11.240;2022-08-19T00:39:54;15.20;;;11.80;;
18338;SDS011;9295;44.484;11.240;2022-08-19T00:42:24;15.83;;;12.23;;
18338;SDS011;9295;44.484;11.240;2022-08-19T00:44:54;13.37;;;11.50;;
18338;SDS011;9295;44.484;11.240;2022-08-19T00:47:23;18.70;;;13.67;;
18338;SDS011;9295;44.484;11.240;2022-08-19T00:49:53;15.63;;;13.10;;
18338;SDS011;9295;44.484;11.240;2022-08-19T00:52:25;18.00;;;13.67;;
18338;SDS011;9295;44.484;11.240;2022-08-19T00:55:01;17.47;;;13.73;;
18338;SDS011;9295;44.484;11.240;2022-08-19T00:57:32;16.30;;;13.60;;
18338;SDS011;9295;44.484;11.240;2022-08-19T01:00:05;14.80;;;12.10;;
18338;SDS011;9295;44.484;11.240;2022-08-19T01:02:37;15.00;;;11.60;;
18338;SDS011;9295;44.484;11.240;2022-08-19T01:05:08;20.70;;;11.30;;
18338;SDS011;9295;44.484;11.240;2022-08-19T01:07:43;13.00;;;9.90;;
18338;SDS011;9295;44.484;11.240;2022-08-19T01:10:14;12.63;;;8.07;;
18338;SDS011;9295;44.484;11.240;2022-08-19T01:12:46;13.83;;;8.13;;
18338;SDS011;9295;44.484;11.240;2022-08-19T01:15:17;11.27;;;7.50;;
18338;SDS011;9295;44.484;11.240;2022-08-19T01:17:47;9.00;;;6.80;;
18338;SDS011;9295;44.484;11.240;2022-08-19T01:20:20;7.77;;;4.90;;
18338;SDS011;9295;44.484;11.240;2022-08-19T01:22:53;8.23;;;4.60;;
18338;SDS011;9295;44.484;11.240;2022-08-19T01:25:24;9.20;;;4.70;;
18338;SDS011;9295;44.484;11.240;2022-08-19T01:27:57;8.73;;;4.47;;
18338;SDS011;9295;44.484;11.240;2022-08-19T01:30:35;6.87;;;3.20;;
18338;SDS011;9295;44.484;11.240;2022-08-19T01:33:04;8.30;;;2.60;;
18338;SDS011;9295;44.484;11.240;2022-08-19T01:35:32;5.60;;;2.50;;
18338;SDS011;9295;44.484;11.240;2022-08-19T01:38:05;6.43;;;2.37;;
18338;SDS011;9295;44.484;11.240;2022-08-19T01:40:38;8.40;;;2.57;;
18338;SDS011;9295;44.484;11.240;2022-08-19T01:43:10;10.93;;;2.83;;
18338;SDS011;9295;44.484;11.240;2022-08-19T01:45:38;15.10;;;2.40;;
18338;SDS011;9295;44.484;11.240;2022-08-19T01:48:07;5.23;;;2.50;;
18338;SDS011;9295;44.484;11.240;2022-08-19T01:50:36;15.50;;;3.20;;
18338;SDS011;9295;44.484;11.240;2022-08-19T01:53:09;9.60;;;2.80;;
18338;SDS011;9295;44.484;11.240;2022-08-19T01:55:41;9.30;;;2.87;;
18338;SDS011;9295;44.484;11.240;2022-08-19T01:58:13;8.50;;;2.87;;
18338;SDS011;9295;44.484;11.240;2022-08-19T02:00:45;7.90;;;2.43;;
18338;SDS011;9295;44.484;11.240;2022-08-19T02:03:14;12.77;;;3.10;;
18338;SDS011;9295;44.484;11.240;2022-08-19T02:05:42;7.20;;;2.77;;
18338;SDS011;9295;44.484;11.240;2022-08-19T02:08:13;11.23;;;3.27;;
18338;SDS011;9295;44.484;11.240;2022-08-19T02:10:42;15.33;;;2.80;;
18338;SDS011;9295;44.484;11.240;2022-08-19T02:13:12;10.33;;;2.90;;
18338;SDS011;9295;44.484;11.240;2022-08-19T02:15:47;13.63;;;3.33;;
18338;SDS011;9295;44.484;11.240;2022-08-19T02:18:17;8.07;;;2.80;;
18338;SDS011;9295;44.484;11.240;2022-08-19T02:20:53;8.50;;;3.03;;
18338;SDS011;9295;44.484;11.240;2022-08-19T02:23:25;11.20;;;2.73;;
18338;SDS011;9295;44.484;11.240;2022-08-19T02:25:57;8.10;;;2.80;;
18338;SDS011;9295;44.484;11.240;2022-08-19T02:28:28;9.00;;;3.13;;
18338;SDS011;9295;44.484;11.240;2022-08-19T02:30:56;12.13;;;3.57;;
18338;SDS011;9295;44.484;11.240;2022-08-19T02:33:27;9.67;;;2.90;;
18338;SDS011;9295;44.484;11.240;2022-08-19T02:35:56;11.00;;;3.77;;
18338;SDS011;9295;44.484;11.240;2022-08-19T02:38:26;10.47;;;3.17;;
18338;SDS011;9295;44.484;11.240;2022-08-19T02:40:56;13.50;;;3.77;;
18338;SDS011;9295;44.484;11.240;2022-08-19T02:43:26;12.47;;;3.30;;
18338;SDS011;9295;44.484;11.240;2022-08-19T02:46:00;7.10;;;3.03;;
18338;SDS011;9295;44.484;11.240;2022-08-19T02:48:29;12.07;;;3.60;;
18338;SDS011;9295;44.484;11.240;2022-08-19T02:50:59;11.63;;;3.60;;
18338;SDS011;9295;44.484;11.240;2022-08-19T02:53:29;13.87;;;3.97;;
18338;SDS011;9295;44.484;11.240;2022-08-19T02:55:58;9.17;;;3.17;;
18338;SDS011;9295;44.484;11.240;2022-08-19T02:58:26;12.53;;;3.10;;
18338;SDS011;9295;44.484;11.240;2022-08-19T03:00:56;7.70;;;2.90;;
18338;SDS011;9295;44.484;11.240;2022-08-19T03:03:25;9.77;;;3.20;;
18338;SDS011;9295;44.484;11.240;2022-08-19T03:06:02;11.13;;;3.00;;
18338;SDS011;9295;44.484;11.240;2022-08-19T03:08:34;8.33;;;3.23;;
18338;SDS011;9295;44.484;11.240;2022-08-19T03:11:02;9.93;;;3.23;;
18338;SDS011;9295;44.484;11.240;2022-08-19T03:13:31;7.80;;;3.10;;
18338;SDS011;9295;44.484;11.240;2022-08-19T03:16:00;10.53;;;3.10;;
18338;SDS011;9295;44.484;11.240;2022-08-19T03:18:33;12.77;;;3.47;;
18338;SDS011;9295;44.484;11.240;2022-08-19T03:21:02;12.90;;;3.10;;
18338;SDS011;9295;44.484;11.240;2022-08-19T03:23:31;6.53;;;2.90;;
18338;SDS011;9295;44.484;11.240;2022-08-19T03:26:02;11.97;;;3.40;;
18338;SDS011;9295;44.484;11.240;2022-08-19T03:28:42;8.30;;;3.10;;
18338;SDS011;9295;44.484;11.240;2022-08-19T03:31:18;12.30;;;3.30;;
18338;SDS011;9295;44.484;11.240;2022-08-19T03:34:09;12.37;;;3.33;;
18338;SDS011;9295;44.484;11.240;2022-08-19T03:36:39;8.23;;;3.20;;
18338;SDS011;9295;44.484;11.240;2022-08-19T03:39:09;10.93;;;3.00;;
18338;SDS011;9295;44.484;11.240;2022-08-19T03:41:40;10.33;;;3.50;;
18338;SDS011;9295;44.484;11.240;2022-08-19T03:44:14;14.90;;;3.47;;
18338;SDS011;9295;44.484;11.240;2022-08-19T03:46:47;7.70;;;3.03;;
18338;SDS011;9295;44.484;11.240;2022-08-19T03:49:17;12.00;;;3.20;;
18338;SDS011;9295;44.484;11.240;2022-08-19T03:51:54;11.63;;;3.20;;
18338;SDS011;9295;44.484;11.240;2022-08-19T03:54:25;12.13;;;4.07;;
18338;SDS011;9295;44.484;11.240;2022-08-19T03:56:55;13.30;;;3.10;;
18338;SDS011;9295;44.484;11.240;2022-08-19T03:59:25;14.70;;;3.63;;
18338;SDS011;9295;44.484;11.240;2022-08-19T04:01:56;15.60;;;3.43;;
18338;SDS011;9295;44.484;11.240;2022-08-19T04:04:26;14.90;;;3.43;;
18338;SDS011;9295;44.484;11.240;2022-08-19T04:06:57;10.57;;;2.80;;
18338;SDS011;9295;44.484;11.240;2022-08-19T04:09:26;11.23;;;3.10;;
18338;SDS011;9295;44.484;11.240;2022-08-19T04:11:58;10.43;;;3.00;;
18338;SDS011;9295;44.484;11.240;2022-08-19T04:14:27;12.07;;;3.40;;
18338;SDS011;9295;44.484;11.240;2022-08-19T04:16:58;13.90;;;3.00;;
18338;SDS011;9295;44.484;11.240;2022-08-19T04:19:28;16.20;;;3.30;;
18338;SDS011;9295;44.484;11.240;2022-08-19T04:21:58;14.10;;;3.70;;
18338;SDS011;9295;44.484;11.240;2022-08-19T04:24:29;10.50;;;3.10;;
18338;SDS011;9295;44.484;11.240;2022-08-19T04:27:00;11.60;;;3.00;;
18338;SDS011;9295;44.484;11.240;2022-08-19T04:29:29;12.30;;;3.50;;
18338;SDS011;9295;44.484;11.240;2022-08-19T04:31:58;12.87;;;3.77;;
18338;SDS011;9295;44.484;11.240;2022-08-19T04:34:35;17.37;;;3.37;;
18338;SDS011;9295;44.484;11.240;2022-08-19T04:37:27;19.67;;;4.23;;
18338;SDS011;9295;44.484;11.240;2022-08-19T04:40:00;18.90;;;3.70;;
18338;SDS011;9295;44.484;11.240;2022-08-19T04:42:49;14.70;;;3.67;;
18338;SDS011;9295;44.484;11.240;2022-08-19T04:45:18;12.03;;;3.83;;
18338;SDS011;9295;44.484;11.240;2022-08-19T04:47:48;10.90;;;3.00;;
18338;SDS011;9295;44.484;11.240;2022-08-19T04:50:39;15.27;;;3.60;;
18338;SDS011;9295;44.484;11.240;2022-08-19T04:53:09;16.50;;;3.57;;
18338;SDS011;9295;44.484;11.240;2022-08-19T04:55:38;15.83;;;3.53;;
18338;SDS011;9295;44.484;11.240;2022-08-19T04:58:10;10.70;;;3.10;;
18338;SDS011;9295;44.484;11.240;2022-08-19T05:00:43;11.30;;;4.00;;
18338;SDS011;9295;44.484;11.240;2022-08-19T05:03:13;16.03;;;4.07;;
18338;SDS011;9295;44.484;11.240;2022-08-19T05:05:43;20.67;;;4.37;;
18338;SDS011;9295;44.484;11.240;2022-08-19T05:08:16;17.57;;;4.00;;
18338;SDS011;9295;44.484;11.240;2022-08-19T05:10:57;12.70;;;4.43;;
18338;SDS011;9295;44.484;11.240;2022-08-19T05:13:27;12.20;;;3.60;;
18338;SDS011;9295;44.484;11.240;2022-08-19T05:15:58;20.23;;;4.33;;
18338;SDS011;9295;44.484;11.240;2022-08-19T05:18:28;17.40;;;3.60;;
18338;SDS011;9295;44.484;11.240;2022-08-19T05:21:15;12.70;;;4.63;;
18338;SDS011;9295;44.484;11.240;2022-08-19T05:24:04;21.23;;;4.60;;
18338;SDS011;9295;44.484;11.240;2022-08-19T05:26:35;18.03;;;4.07;;
18338;SDS011;9295;44.484;11.240;2022-08-19T05:29:05;20.03;;;4.20;;
18338;SDS011;9295;44.484;11.240;2022-08-19T05:31:38;14.30;;;4.13;;
18338;SDS011;9295;44.484;11.240;2022-08-19T05:34:09;11.43;;;3.60;;
18338;SDS011;9295;44.484;11.240;2022-08-19T05:36:46;17.50;;;4.40;;
18338;SDS011;9295;44.484;11.240;2022-08-19T05:39:16;14.80;;;4.40;;
18338;SDS011;9295;44.484;11.240;2022-08-19T05:41:49;12.77;;;4.53;;
18338;SDS011;9295;44.484;11.240;2022-08-19T05:44:20;11.30;;;4.60;;
18338;SDS011;9295;44.484;11.240;2022-08-19T05:46:49;22.17;;;4.50;;
18338;SDS011;9295;44.484;11.240;2022-08-19T05:49:20;15.60;;;4.80;;
18338;SDS011;9295;44.484;11.240;2022-08-19T05:51:50;10.57;;;3.77;;
18338;SDS011;9295;44.484;11.240;2022-08-19T05:54:18;9.30;;;3.17;;
18338;SDS011;9295;44.484;11.240;2022-08-19T05:56:47;8.57;;;2.93;;
18338;SDS011;9295;44.484;11.240;2022-08-19T05:59:19;5.53;;;2.97;;
18338;SDS011;9295;44.484;11.240;2022-08-19T06:01:51;9.77;;;2.80;;
18338;SDS011;9295;44.484;11.240;2022-08-19T06:04:21;7.80;;;3.00;;
18338;SDS011;9295;44.484;11.240;2022-08-19T06:06:50;8.17;;;3.10;;
18338;SDS011;9295;44.484;11.240;2022-08-19T06:09:20;5.50;;;2.50;;
18338;SDS011;9295;44.484;11.240;2022-08-19T06:11:50;8.73;;;3.10;;
18338;SDS011;9295;44.484;11.240;2022-08-19T06:14:23;7.27;;;2.90;;
18338;SDS011;9295;44.484;11.240;2022-08-19T06:16:54;8.00;;;3.30;;
18338;SDS011;9295;44.484;11.240;2022-08-19T06:19:23;5.80;;;2.87;;
18338;SDS011;9295;44.484;11.240;2022-08-19T06:21:52;6.67;;;2.20;;
18338;SDS011;9295;44.484;11.240;2022-08-19T06:24:22;6.30;;;1.80;;
18338;SDS011;9295;44.484;11.240;2022-08-19T06:26:52;4.47;;;2.20;;
18338;SDS011;9295;44.484;11.240;2022-08-19T06:29:28;3.50;;;1.70;;
18338;SDS011;9295;44.484;11.240;2022-08-19T06:32:01;6.33;;;1.77;;
18338;SDS011;9295;44.484;11.240;2022-08-19T06:34:31;4.03;;;2.10;;
18338;SDS011;9295;44.484;11.240;2022-08-19T06:37:01;4.93;;;1.60;;
18338;SDS011;9295;44.484;11.240;2022-08-19T06:39:33;3.60;;;1.80;;
18338;SDS011;9295;44.484;11.240;2022-08-19T06:42:05;9.00;;;1.97;;
18338;SDS011;9295;44.484;11.240;2022-08-19T06:44:42;4.63;;;1.80;;
18338;SDS011;9295;44.484;11.240;2022-08-19T06:47:15;4.63;;;1.77;;
18338;SDS011;9295;44.484;11.240;2022-08-19T06:49:54;6.30;;;2.17;;
18338;SDS011;9295;44.484;11.240;2022-08-19T06:52:29;5.10;;;2.00;;
18338;SDS011;9295;44.484;11.240;2022-08-19T06:55:00;4.20;;;2.00;;
18338;SDS011;9295;44.484;11.240;2022-08-19T06:57:32;4.17;;;2.17;;
18338;SDS011;9295;44.484;11.240;2022-08-19T07:00:04;3.30;;;2.03;;
18338;SDS011;9295;44.484;11.240;2022-08-19T07:02:38;2.47;;;1.60;;
18338;SDS011;9295;44.484;11.240;2022-08-19T07:05:18;2.53;;;1.50;;
18338;SDS011;9295;44.484;11.240;2022-08-19T07:07:47;2.20;;;1.20;;
18338;SDS011;9295;44.484;11.240;2022-08-19T07:10:16;2.70;;;1.53;;
18338;SDS011;9295;44.484;11.240;2022-08-19T07:12:45;2.87;;;1.43;;
18338;SDS011;9295;44.484;11.240;2022-08-19T07:15:17;2.20;;;1.30;;
18338;SDS011;9295;44.484;11.240;2022-08-19T07:17:47;3.07;;;1.30;;
18338;SDS011;9295;44.484;11.240;2022-08-19T07:20:21;2.90;;;1.10;;
18338;SDS011;9295;44.484;11.240;2022-08-19T07:22:55;3.13;;;1.07;;
18338;SDS011;9295;44.484;11.240;2022-08-19T07:25:24;2.00;;;0.90;;
18338;SDS011;9295;44.484;11.240;2022-08-19T07:27:58;2.27;;;1.17;;
18338;SDS011;9295;44.484;11.240;2022-08-19T07:30:31;1.80;;;1.00;;
18338;SDS011;9295;44.484;11.240;2022-08-19T07:33:00;2.17;;;1.00;;
18338;SDS011;9295;44.484;11.240;2022-08-19T07:35:29;1.60;;;0.90;;
18338;SDS011;9295;44.484;11.240;2022-08-19T07:37:59;1.40;;;0.83;;
18338;SDS011;9295;44.484;11.240;2022-08-19T07:40:29;3.93;;;1.00;;
18338;SDS011;9295;44.484;11.240;2022-08-19T07:42:58;3.50;;;0.90;;
18338;SDS011;9295;44.484;11.240;2022-08-19T07:45:27;1.30;;;0.80;;
18338;SDS011;9295;44.484;11.240;2022-08-19T07:47:57;3.00;;;1.07;;
18338;SDS011;9295;44.484;11.240;2022-08-19T07:50:26;1.93;;;0.90;;
18338;SDS011;9295;44.484;11.240;2022-08-19T07:52:55;2.00;;;0.90;;
18338;SDS011;9295;44.484;11.240;2022-08-19T07:55:25;1.30;;;0.80;;
18338;SDS011;9295;44.484;11.240;2022-08-19T07:58:08;1.60;;;0.90;;
18338;SDS011;9295;44.484;11.240;2022-08-19T08:00:38;2.30;;;0.80;;
18338;SDS011;9295;44.484;11.240;2022-08-19T08:03:09;2.20;;;0.97;;
18338;SDS011;9295;44.484;11.240;2022-08-19T08:05:38;4.83;;;1.03;;
18338;SDS011;9295;44.484;11.240;2022-08-19T08:08:24;2.60;;;1.20;;
18338;SDS011;9295;44.484;11.240;2022-08-19T08:11:14;2.47;;;1.00;;
18338;SDS011;9295;44.484;11.240;2022-08-19T08:13:46;1.43;;;0.90;;
18338;SDS011;9295;44.484;11.240;2022-08-19T08:16:30;2.60;;;1.10;;
18338;SDS011;9295;44.484;11.240;2022-08-19T08:19:06;1.83;;;0.90;;
18338;SDS011;9295;44.484;11.240;2022-08-19T08:21:52;3.57;;;0.97;;
18338;SDS011;9295;44.484;11.240;2022-08-19T08:24:22;2.83;;;1.07;;
18338;SDS011;9295;44.484;11.240;2022-08-19T08:26:54;2.30;;;1.17;;
18338;SDS011;9295;44.484;11.240;2022-08-19T08:29:25;3.60;;;1.13;;
18338;SDS011;9295;44.484;11.240;2022-08-19T08:32:00;2.90;;;1.00;;
18338;SDS011;9295;44.484;11.240;2022-08-19T08:34:42;3.73;;;1.20;;
18338;SDS011;9295;44.484;11.240;2022-08-19T08:37:15;2.83;;;1.00;;
18338;SDS011;9295;44.484;11.240;2022-08-19T08:39:44;2.73;;;1.00;;
18338;SDS011;9295;44.484;11.240;2022-08-19T08:42:16;7.00;;;1.50;;
18338;SDS011;9295;44.484;11.240;2022-08-19T08:44:54;2.30;;;1.10;;
18338;SDS011;9295;44.484;11.240;2022-08-19T08:47:28;3.83;;;1.00;;
18338;SDS011;9295;44.484;11.240;2022-08-19T08:50:06;2.87;;;1.30;;
18338;SDS011;9295;44.484;11.240;2022-08-19T08:52:41;2.43;;;1.37;;
18338;SDS011;9295;44.484;11.240;2022-08-19T08:55:13;2.47;;;1.30;;
18338;SDS011;9295;44.484;11.240;2022-08-19T08:57:51;5.40;;;1.33;;
18338;SDS011;9295;44.484;11.240;2022-08-19T09:00:23;3.60;;;1.63;;
18338;SDS011;9295;44.484;11.240;2022-08-19T09:02:56;5.10;;;1.43;;
18338;SDS011;9295;44.484;11.240;2022-08-19T09:05:30;2.60;;;1.40;;
18338;SDS011;9295;44.484;11.240;2022-08-19T09:08:16;4.33;;;1.43;;
18338;SDS011;9295;44.484;11.240;2022-08-19T09:10:54;5.00;;;1.50;;
18338;SDS011;9295;44.484;11.240;2022-08-19T09:13:25;8.23;;;1.40;;
18338;SDS011;9295;44.484;11.240;2022-08-19T09:16:05;3.17;;;1.37;;
18338;SDS011;9295;44.484;11.240;2022-08-19T09:18:38;3.80;;;1.50;;
18338;SDS011;9295;44.484;11.240;2022-08-19T09:21:10;4.00;;;1.50;;
18338;SDS011;9295;44.484;11.240;2022-08-19T09:23:39;3.97;;;1.37;;
18338;SDS011;9295;44.484;11.240;2022-08-19T09:26:13;2.67;;;1.30;;
18338;SDS011;9295;44.484;11.240;2022-08-19T09:28:46;5.60;;;1.70;;
18338;SDS011;9295;44.484;11.240;2022-08-19T09:31:18;3.30;;;1.20;;
18338;SDS011;9295;44.484;11.240;2022-08-19T09:33:48;3.57;;;1.37;;
18338;SDS011;9295;44.484;11.240;2022-08-19T09:36:20;4.27;;;1.90;;
18338;SDS011;9295;44.484;11.240;2022-08-19T09:39:00;3.37;;;1.27;;
18338;SDS011;9295;44.484;11.240;2022-08-19T09:41:41;2.33;;;1.10;;
18338;SDS011;9295;44.484;11.240;2022-08-19T09:44:14;2.10;;;1.07;;
18338;SDS011;9295;44.484;11.240;2022-08-19T09:46:45;3.33;;;1.20;;
18338;SDS011;9295;44.484;11.240;2022-08-19T09:49:14;6.43;;;1.70;;
18338;SDS011;9295;44.484;11.240;2022-08-19T09:51:46;4.10;;;1.50;;
18338;SDS011;9295;44.484;11.240;2022-08-19T09:54:17;6.20;;;1.30;;
18338;SDS011;9295;44.484;11.240;2022-08-19T09:56:50;3.90;;;1.60;;
18338;SDS011;9295;44.484;11.240;2022-08-19T09:59:19;2.03;;;1.00;;
18338;SDS011;9295;44.484;11.240;2022-08-19T10:01:47;3.70;;;1.40;;
18338;SDS011;9295;44.484;11.240;2022-08-19T10:04:17;3.63;;;1.40;;
18338;SDS011;9295;44.484;11.240;2022-08-19T10:06:49;4.97;;;1.47;;
18338;SDS011;9295;44.484;11.240;2022-08-19T10:09:21;5.50;;;1.40;;
18338;SDS011;9295;44.484;11.240;2022-08-19T10:11:59;3.63;;;1.37;;
18338;SDS011;9295;44.484;11.240;2022-08-19T10:14:31;4.40;;;1.30;;
18338;SDS011;9295;44.484;11.240;2022-08-19T10:17:01;5.40;;;1.63;;
18338;SDS011;9295;44.484;11.240;2022-08-19T10:19:47;2.97;;;1.20;;
18338;SDS011;9295;44.484;11.240;2022-08-19T10:22:23;3.00;;;1.23;;
18338;SDS011;9295;44.484;11.240;2022-08-19T10:24:51;4.43;;;1.40;;
18338;SDS011;9295;44.484;11.240;2022-08-19T10:27:20;3.60;;;1.47;;
18338;SDS011;9295;44.484;11.240;2022-08-19T10:29:52;3.80;;;1.30;;
18338;SDS011;9295;44.484;11.240;2022-08-19T10:32:20;2.60;;;1.20;;
18338;SDS011;9295;44.484;11.240;2022-08-19T10:34:59;3.50;;;1.40;;
18338;SDS011;9295;44.484;11.240;2022-08-19T10:37:34;2.27;;;1.20;;
18338;SDS011;9295;44.484;11.240;2022-08-19T10:40:23;3.43;;;1.47;;
18338;SDS011;9295;44.484;11.240;2022-08-19T10:42:52;3.07;;;1.40;;
18338;SDS011;9295;44.484;11.240;2022-08-19T10:45:22;4.30;;;1.60;;
18338;SDS011;9295;44.484;11.240;2022-08-19T10:47:53;3.70;;;1.50;;
18338;SDS011;9295;44.484;11.240;2022-08-19T10:50:22;6.57;;;1.40;;
18338;SDS011;9295;44.484;11.240;2022-08-19T10:53:13;3.97;;;1.50;;
18338;SDS011;9295;44.484;11.240;2022-08-19T10:55:41;6.27;;;1.33;;
18338;SDS011;9295;44.484;11.240;2022-08-19T10:58:29;6.27;;;1.60;;
18338;SDS011;9295;44.484;11.240;2022-08-19T11:00:58;3.17;;;1.43;;
18338;SDS011;9295;44.484;11.240;2022-08-19T11:03:27;2.70;;;1.07;;
18338;SDS011;9295;44.484;11.240;2022-08-19T11:06:17;2.33;;;1.03;;
18338;SDS011;9295;44.484;11.240;2022-08-19T11:08:50;2.73;;;1.00;;
18338;SDS011;9295;44.484;11.240;2022-08-19T11:11:18;2.97;;;1.10;;
18338;SDS011;9295;44.484;11.240;2022-08-19T11:13:48;5.13;;;1.30;;
18338;SDS011;9295;44.484;11.240;2022-08-19T11:16:18;4.50;;;1.40;;
18338;SDS011;9295;44.484;11.240;2022-08-19T11:18:49;3.27;;;1.30;;
18338;SDS011;9295;44.484;11.240;2022-08-19T11:21:19;2.73;;;1.10;;
18338;SDS011;9295;44.484;11.240;2022-08-19T11:23:51;3.50;;;1.17;;
18338;SDS011;9295;44.484;11.240;2022-08-19T11:26:21;2.67;;;1.30;;
18338;SDS011;9295;44.484;11.240;2022-08-19T11:28:51;2.37;;;1.10;;
18338;SDS011;9295;44.484;11.240;2022-08-19T11:31:21;4.37;;;1.30;;
18338;SDS011;9295;44.484;11.240;2022-08-19T11:33:55;3.50;;;1.40;;
18338;SDS011;9295;44.484;11.240;2022-08-19T11:36:26;2.43;;;1.03;;
18338;SDS011;9295;44.484;11.240;2022-08-19T11:38:57;5.87;;;1.47;;
18338;SDS011;9295;44.484;11.240;2022-08-19T11:41:26;4.07;;;1.30;;
18338;SDS011;9295;44.484;11.240;2022-08-19T11:43:54;2.57;;;1.10;;
18338;SDS011;9295;44.484;11.240;2022-08-19T11:46:27;4.60;;;1.13;;
18338;SDS011;9295;44.484;11.240;2022-08-19T11:48:59;2.83;;;1.20;;
18338;SDS011;9295;44.484;11.240;2022-08-19T11:51:30;3.37;;;1.40;;
18338;SDS011;9295;44.484;11.240;2022-08-19T11:54:01;2.70;;;1.10;;
18338;SDS011;9295;44.484;11.240;2022-08-19T11:56:31;3.33;;;1.23;;
18338;SDS011;9295;44.484;11.240;2022-08-19T11:59:00;2.93;;;1.20;;
18338;SDS011;9295;44.484;11.240;2022-08-19T12:01:31;4.17;;;1.13;;
18338;SDS011;9295;44.484;11.240;2022-08-19T12:03:59;1.90;;;1.00;;
18338;SDS011;9295;44.484;11.240;2022-08-19T12:06:30;3.23;;;1.20;;
18338;SDS011;9295;44.484;11.240;2022-08-19T12:09:03;4.30;;;1.07;;
18338;SDS011;9295;44.484;11.240;2022-08-19T12:11:36;2.60;;;1.10;;
18338;SDS011;9295;44.484;11.240;2022-08-19T12:14:06;2.63;;;1.10;;
18338;SDS011;9295;44.484;11.240;2022-08-19T12:16:40;2.20;;;0.93;;
18338;SDS011;9295;44.484;11.240;2022-08-19T12:19:18;3.43;;;1.10;;
18338;SDS011;9295;44.484;11.240;2022-08-19T12:21:49;2.83;;;0.90;;
18338;SDS011;9295;44.484;11.240;2022-08-19T12:24:23;2.40;;;1.00;;
18338;SDS011;9295;44.484;11.240;2022-08-19T12:26:55;4.50;;;1.30;;
18338;SDS011;9295;44.484;11.240;2022-08-19T12:29:29;4.60;;;1.30;;
18338;SDS011;9295;44.484;11.240;2022-08-19T12:31:57;2.70;;;1.20;;
18338;SDS011;9295;44.484;11.240;2022-08-19T12:34:29;2.47;;;1.20;;
18338;SDS011;9295;44.484;11.240;2022-08-19T12:37:02;3.27;;;1.20;;
18338;SDS011;9295;44.484;11.240;2022-08-19T12:39:35;3.27;;;1.10;;
18338;SDS011;9295;44.484;11.240;2022-08-19T12:42:05;3.10;;;1.20;;
18338;SDS011;9295;44.484;11.240;2022-08-19T12:44:34;3.27;;;1.20;;
18338;SDS011;9295;44.484;11.240;2022-08-19T12:47:07;4.00;;;1.13;;
18338;SDS011;9295;44.484;11.240;2022-08-19T12:49:36;2.60;;;1.20;;
18338;SDS011;9295;44.484;11.240;2022-08-19T12:52:20;2.97;;;1.00;;
18338;SDS011;9295;44.484;11.240;2022-08-19T12:54:51;3.90;;;1.40;;
18338;SDS011;9295;44.484;11.240;2022-08-19T12:57:21;6.17;;;1.20;;
18338;SDS011;9295;44.484;11.240;2022-08-19T12:59:59;3.00;;;1.10;;
18338;SDS011;9295;44.484;11.240;2022-08-19T13:02:30;3.73;;;1.43;;
18338;SDS011;9295;44.484;11.240;2022-08-19T13:05:06;2.40;;;1.23;;
18338;SDS011;9295;44.484;11.240;2022-08-19T13:07:37;4.40;;;1.10;;
18338;SDS011;9295;44.484;11.240;2022-08-19T13:10:09;3.33;;;1.43;;
18338;SDS011;9295;44.484;11.240;2022-08-19T13:12:39;3.40;;;1.17;;
18338;SDS011;9295;44.484;11.240;2022-08-19T13:15:08;2.73;;;1.30;;
18338;SDS011;9295;44.484;11.240;2022-08-19T13:17:40;2.97;;;1.20;;
18338;SDS011;9295;44.484;11.240;2022-08-19T13:20:09;2.70;;;1.00;;
18338;SDS011;9295;44.484;11.240;2022-08-19T13:22:38;2.27;;;1.00;;
18338;SDS011;9295;44.484;11.240;2022-08-19T13:25:09;3.17;;;1.30;;
18338;SDS011;9295;44.484;11.240;2022-08-19T13:27:38;4.63;;;1.40;;
18338;SDS011;9295;44.484;11.240;2022-08-19T13:30:08;3.00;;;1.27;;
18338;SDS011;9295;44.484;11.240;2022-08-19T13:32:59;4.07;;;1.30;;
18338;SDS011;9295;44.484;11.240;2022-08-19T13:35:43;3.10;;;1.10;;
18338;SDS011;9295;44.484;11.240;2022-08-19T13:38:14;2.40;;;1.20;;
18338;SDS011;9295;44.484;11.240;2022-08-19T13:40:46;3.47;;;1.10;;
18338;SDS011;9295;44.484;11.240;2022-08-19T13:43:18;3.23;;;1.23;;
18338;SDS011;9295;44.484;11.240;2022-08-19T13:45:49;4.60;;;1.23;;
18338;SDS011;9295;44.484;11.240;2022-08-19T13:48:23;2.70;;;1.20;;
18338;SDS011;9295;44.484;11.240;2022-08-19T13:50:54;2.27;;;1.00;;
18338;SDS011;9295;44.484;11.240;2022-08-19T13:53:22;4.17;;;1.30;;
18338;SDS011;9295;44.484;11.240;2022-08-19T13:55:52;9.10;;;1.90;;
18338;SDS011;9295;44.484;11.240;2022-08-19T13:58:21;6.10;;;1.70;;
18338;SDS011;9295;44.484;11.240;2022-08-19T14:00:53;3.10;;;1.23;;
18338;SDS011;9295;44.484;11.240;2022-08-19T14:03:21;4.20;;;1.30;;
18338;SDS011;9295;44.484;11.240;2022-08-19T14:05:50;3.93;;;1.37;;
18338;SDS011;9295;44.484;11.240;2022-08-19T14:08:19;4.40;;;1.33;;
18338;SDS011;9295;44.484;11.240;2022-08-19T14:10:48;3.43;;;1.47;;
18338;SDS011;9295;44.484;11.240;2022-08-19T14:13:19;4.37;;;1.30;;
18338;SDS011;9295;44.484;11.240;2022-08-19T14:15:52;2.47;;;1.10;;
18338;SDS011;9295;44.484;11.240;2022-08-19T14:18:21;3.00;;;1.10;;
18338;SDS011;9295;44.484;11.240;2022-08-19T14:20:54;3.03;;;1.10;;
18338;SDS011;9295;44.484;11.240;2022-08-19T14:23:24;2.40;;;1.20;;
18338;SDS011;9295;44.484;11.240;2022-08-19T14:25:52;3.47;;;1.20;;
18338;SDS011;9295;44.484;11.240;2022-08-19T14:28:30;2.90;;;1.37;;
18338;SDS011;9295;44.484;11.240;2022-08-19T14:30:58;3.37;;;1.20;;
18338;SDS011;9295;44.484;11.240;2022-08-19T14:33:27;3.23;;;1.13;;
18338;SDS011;9295;44.484;11.240;2022-08-19T14:35:56;3.50;;;1.23;;
18338;SDS011;9295;44.484;11.240;2022-08-19T14:38:25;4.50;;;1.30;;
18338;SDS011;9295;44.484;11.240;2022-08-19T14:41:11;2.10;;;1.20;;
18338;SDS011;9295;44.484;11.240;2022-08-19T14:43:45;6.40;;;1.23;;
18338;SDS011;9295;44.484;11.240;2022-08-19T14:46:15;2.43;;;1.10;;
18338;SDS011;9295;44.484;11.240;2022-08-19T14:48:47;5.03;;;1.50;;
18338;SDS011;9295;44.484;11.240;2022-08-19T14:51:18;3.07;;;1.20;;
18338;SDS011;9295;44.484;11.240;2022-08-19T14:53:47;3.90;;;1.23;;
18338;SDS011;9295;44.484;11.240;2022-08-19T14:56:17;2.93;;;1.20;;
18338;SDS011;9295;44.484;11.240;2022-08-19T14:58:49;2.43;;;1.23;;
18338;SDS011;9295;44.484;11.240;2022-08-19T15:01:18;4.40;;;1.10;;
18338;SDS011;9295;44.484;11.240;2022-08-19T15:03:48;3.20;;;1.23;;
18338;SDS011;9295;44.484;11.240;2022-08-19T15:06:19;3.47;;;1.40;;
18338;SDS011;9295;44.484;11.240;2022-08-19T15:08:49;8.23;;;1.50;;
18338;SDS011;9295;44.484;11.240;2022-08-19T15:11:19;5.00;;;1.37;;
18338;SDS011;9295;44.484;11.240;2022-08-19T15:13:51;3.10;;;1.40;;